Time;durP1;ratioP1;P1;durP2;ratioP2;P2;SDS_P1;SDS_P2;PMS_P1;PMS_P2;Temp;Humidity;BMP_temperature;BMP_pressure;BME280_temperature;BME280_humidity;BME280_pressure;Samples;Min_cycle;Max_cycle;Signal;HPM_P1;HPM_P2
2023/01/12 00:01:35;;;;;;;33.30;4.95;;;;;;;8.47;100.00;100689.44;5048112;28;20102;-76
2023/01/12 00:04:02;;;;;;;28.40;3.97;;;;;;;8.47;100.00;100684.13;5044847;28;20064;-76
2023/01/12 00:06:31;;;;;;;30.05;4.45;;;;;;;8.48;100.00;100680.53;5064822;28;20032;-76
2023/01/12 00:08:57;;;;;;;35.00;5.05;;;;;;;8.45;100.00;100675.34;5060957;28;20512;-76
2023/01/12 00:11:24;;;;;;;29.67;4.93;;;;;;;8.43;100.00;100673.72;5050096;28;20083;-76
2023/01/12 00:13:50;;;;;;;27.77;5.13;;;;;;;8.39;100.00;100677.41;5049244;28;20032;-76
2023/01/12 00:16:36;;;;;;;31.58;5.05;;;;;;;8.37;100.00;100660.66;5066099;28;20044;-76
2023/01/12 00:19:17;;;;;;;31.80;5.03;;;;;;;8.37;100.00;100653.56;5065617;28;20047;-75
2023/01/12 00:24:44;;;;;;;43.08;5.63;;;;;;;8.35;100.00;100650.97;5057194;28;20029;-76
2023/01/12 00:27:13;;;;;;;46.45;5.60;;;;;;;8.37;100.00;100655.34;5067842;28;20403;-76
2023/01/12 00:29:41;;;;;;;39.33;5.68;;;;;;;8.37;100.00;100653.56;5052556;28;20033;-76
2023/01/12 00:32:11;;;;;;;34.60;5.80;;;;;;;8.38;100.00;100655.28;5053513;28;20174;-76
2023/01/12 00:34:37;;;;;;;39.60;6.13;;;;;;;8.40;100.00;100656.06;5069192;28;20043;-75
2023/01/12 00:37:04;;;;;;;51.47;7.10;;;;;;;8.41;100.00;100631.19;5037195;28;20169;-75
2023/01/12 00:39:30;;;;;;;43.47;5.68;;;;;;;8.41;100.00;100641.81;5030609;28;20170;-76
2023/01/12 00:47:26;;;;;;;50.72;6.63;;;;;;;8.44;100.00;100639.06;5068842;28;20036;-77
2023/01/12 00:49:52;;;;;;;46.85;7.40;;;;;;;8.44;100.00;100633.75;5067970;28;20044;-75
2023/01/12 00:52:19;;;;;;;56.50;7.60;;;;;;;8.41;100.00;100628.53;5069486;28;20048;-76
2023/01/12 00:54:46;;;;;;;53.00;6.68;;;;;;;8.45;100.00;100627.47;5052019;28;20052;-76
2023/01/12 00:57:16;;;;;;;50.78;8.95;;;;;;;8.47;100.00;100628.25;5069309;28;20063;-75
2023/01/12 00:59:43;;;;;;;49.03;6.45;;;;;;;8.44;100.00;100617.78;5067594;28;20051;-76
2023/01/12 01:02:11;;;;;;;56.40;6.65;;;;;;;8.45;100.00;100619.47;5067455;28;20047;-76
2023/01/12 01:04:38;;;;;;;57.65;8.27;;;;;;;8.47;100.00;100630.91;5053893;28;20044;-76
2023/01/12 01:07:04;;;;;;;58.17;7.95;;;;;;;8.46;100.00;100629.19;5069205;28;20407;-76
2023/01/12 01:09:30;;;;;;;55.63;10.00;;;;;;;8.48;100.00;100611.34;5067754;28;20047;-78
2023/01/12 01:11:57;;;;;;;66.70;9.35;;;;;;;8.47;100.00;100606.97;5065724;28;20043;-79
2023/01/12 01:14:24;;;;;;;63.22;10.13;;;;;;;8.48;100.00;100606.03;5069764;28;20119;-80
2023/01/12 01:16:50;;;;;;;57.45;7.30;;;;;;;8.48;100.00;100605.16;5069181;28;20098;-80
2023/01/12 01:19:17;;;;;;;62.40;7.60;;;;;;;8.48;100.00;100611.34;5068177;28;21781;-79
2023/01/12 01:21:43;;;;;;;52.92;7.95;;;;;;;8.44;100.00;100601.81;5049902;28;20596;-80
2023/01/12 01:24:13;;;;;;;68.70;8.57;;;;;;;8.44;100.00;100596.50;5069920;28;20083;-79
2023/01/12 01:26:40;;;;;;;48.80;7.53;;;;;;;8.42;100.00;100603.66;5069419;28;20028;-79
2023/01/12 01:29:06;;;;;;;49.35;8.95;;;;;;;8.39;100.00;100578.97;5068763;28;20036;-79
2023/01/12 01:31:33;;;;;;;58.45;8.90;;;;;;;8.37;100.00;100579.09;5051781;28;20028;-79
2023/01/12 01:33:59;;;;;;;47.85;7.82;;;;;;;8.38;100.00;100574.63;5069635;28;20033;-79
2023/01/12 01:36:25;;;;;;;50.55;8.45;;;;;;;8.37;100.00;100571.09;5052069;28;20822;-79
2023/01/12 01:38:51;;;;;;;53.42;9.15;;;;;;;8.37;100.00;100564.91;5067910;28;20437;-79
2023/01/12 01:41:27;;;;;;;48.00;9.52;;;;;;;8.38;100.00;100575.47;5062753;28;20040;-79
2023/01/12 01:44:03;;;;;;;46.80;8.55;;;;;;;8.37;100.00;100560.47;5050869;28;20048;-80
2023/01/12 01:46:40;;;;;;;47.65;9.35;;;;;;;8.42;100.00;100563.75;5066043;28;20416;-81
2023/01/12 01:49:09;;;;;;;49.85;9.80;;;;;;;8.41;100.00;100556.72;5069130;28;20141;-79
2023/01/12 01:51:36;;;;;;;44.10;9.27;;;;;;;8.43;100.00;100569.97;5069535;28;20449;-80
2023/01/12 01:54:03;;;;;;;49.05;10.52;;;;;;;8.45;100.00;100565.44;5070646;28;20032;-79
2023/01/12 01:56:30;;;;;;;42.65;9.32;;;;;;;8.46;100.00;100568.00;5035256;28;20440;-79
2023/01/12 01:59:08;;;;;;;50.55;10.98;;;;;;;8.48;100.00;100571.44;5052589;28;20119;-79
2023/01/12 02:01:38;;;;;;;50.38;10.45;;;;;;;8.51;100.00;100551.81;5056052;28;20473;-80
2023/01/12 02:04:05;;;;;;;44.25;10.23;;;;;;;8.49;100.00;100553.69;5070488;28;20035;-79
2023/01/12 02:06:31;;;;;;;38.53;9.45;;;;;;;8.50;100.00;100542.97;5042616;28;20563;-80
2023/01/12 02:09:00;;;;;;;47.10;8.43;;;;;;;8.30;100.00;100505.88;5055094;28;20877;-79
2023/01/12 02:17:20;;;;;;;32.92;5.80;;;;;;;8.53;100.00;100524.16;5046137;28;20372;-80
2023/01/12 02:19:50;;;;;;;28.13;4.30;;;;;;;8.52;100.00;100522.47;5067857;28;20465;-80
2023/01/12 02:22:26;;;;;;;27.40;5.75;;;;;;;8.50;100.00;100478.28;5046659;28;20044;-80
2023/01/12 02:25:30;;;;;;;25.25;4.50;;;;;;;8.50;100.00;100507.53;5063468;28;20156;-80
2023/01/12 02:28:11;;;;;;;22.20;4.25;;;;;;;8.50;100.00;100508.38;5052876;28;20028;-80
2023/01/12 02:31:06;;;;;;;30.77;5.97;;;;;;;8.46;100.00;100496.19;5066823;28;20075;-80
2023/01/12 02:33:45;;;;;;;16.58;3.10;;;;;;;8.44;100.00;100495.41;5051246;28;20086;-80
2023/01/12 02:36:11;;;;;;;24.27;4.35;;;;;;;8.43;100.00;100480.38;5066466;28;20051;-80
2023/01/12 02:38:45;;;;;;;24.73;4.00;;;;;;;8.43;100.00;100448.47;5047212;28;20473;-79
2023/01/12 02:44:37;;;;;;;20.30;3.63;;;;;;;8.42;100.00;100441.41;5005570;28;20509;-80
2023/01/12 02:47:08;;;;;;;21.08;3.25;;;;;;;8.43;100.00;100442.28;5028993;28;20067;-80
2023/01/12 02:49:41;;;;;;;23.00;4.15;;;;;;;8.42;100.00;100454.69;5066758;28;20040;-80
2023/01/12 02:52:12;;;;;;;19.23;3.20;;;;;;;8.43;100.00;100432.50;5069225;28;20143;-79
2023/01/12 02:54:39;;;;;;;22.75;4.53;;;;;;;8.46;100.00;100444.75;5035148;28;20024;-80
2023/01/12 02:57:07;;;;;;;29.35;4.72;;;;;;;8.46;100.00;100437.66;5050569;28;21842;-79
2023/01/12 02:59:38;;;;;;;23.83;4.05;;;;;;;8.49;100.00;100426.84;5059374;28;20383;-80
2023/01/12 03:02:17;;;;;;;23.40;4.22;;;;;;;8.50;100.00;100428.56;5067936;28;20398;-80
2023/01/12 03:04:44;;;;;;;32.17;4.75;;;;;;;8.51;100.00;100408.13;5040804;28;20375;-80
2023/01/12 03:07:33;;;;;;;29.65;4.97;;;;;;;8.53;100.00;100422.22;5048020;28;20083;-80
2023/01/12 03:10:14;;;;;;;25.35;5.00;;;;;;;8.55;100.00;100417.66;5041384;28;20028;-80
2023/01/12 03:12:43;;;;;;;28.00;5.65;;;;;;;8.55;100.00;100407.03;5066368;28;20028;-79
2023/01/12 03:15:11;;;;;;;34.55;5.70;;;;;;;8.56;100.00;100411.41;5066817;28;20037;-80
2023/01/12 03:17:44;;;;;;;32.25;6.15;;;;;;;8.56;100.00;100394.59;5062872;28;20063;-79
2023/01/12 03:20:21;;;;;;;30.17;5.20;;;;;;;8.56;100.00;100394.59;5048985;28;20036;-80
2023/01/12 03:22:48;;;;;;;19.67;5.72;;;;;;;8.54;100.00;100395.53;5064969;28;20630;-80
2023/01/12 03:25:16;;;;;;;27.58;5.97;;;;;;;8.54;100.00;100373.41;5048237;28;20130;-79
2023/01/12 03:27:47;;;;;;;30.40;6.22;;;;;;;8.53;100.00;100356.56;5049828;28;20036;-79
2023/01/12 03:30:23;;;;;;;27.67;5.70;;;;;;;8.48;100.00;100349.78;5048207;28;20433;-80
2023/01/12 03:32:50;;;;;;;28.55;7.15;;;;;;;8.44;100.00;100334.94;5048496;28;20097;-80
2023/01/12 03:35:17;;;;;;;26.23;7.47;;;;;;;8.40;100.00;100339.53;5048316;28;20043;-80
2023/01/12 03:37:53;;;;;;;22.67;6.55;;;;;;;8.37;100.00;100326.41;5066962;28;20038;-80
2023/01/12 03:40:25;;;;;;;25.00;7.32;;;;;;;8.36;100.00;100314.03;5048081;28;20730;-79
2023/01/12 03:42:57;;;;;;;24.65;7.65;;;;;;;8.33;100.00;100299.13;5067516;28;20032;-80
2023/01/12 03:45:32;;;;;;;23.05;6.82;;;;;;;8.30;100.00;100303.75;5066351;28;20115;-79
2023/01/12 03:48:06;;;;;;;21.52;7.35;;;;;;;8.29;100.00;100291.38;5066940;28;20406;-80
2023/01/12 03:50:46;;;;;;;32.53;6.47;;;;;;;8.27;100.00;100279.97;5065755;28;20120;-80
2023/01/12 03:53:14;;;;;;;20.57;6.50;;;;;;;8.24;100.00;100245.59;5047789;28;20053;-80
2023/01/12 03:55:41;;;;;;;17.55;5.65;;;;;;;8.22;100.00;100220.84;5048029;28;20389;-79
2023/01/12 03:58:07;;;;;;;20.38;5.35;;;;;;;8.21;100.00;100220.00;5049218;28;20537;-79
2023/01/12 04:00:34;;;;;;;23.42;4.90;;;;;;;8.20;100.00;100185.53;5032885;28;20039;-80
2023/01/12 04:03:13;;;;;;;25.05;4.03;;;;;;;8.21;100.00;100208.53;5034987;28;20056;-80
2023/01/12 04:05:43;;;;;;;11.13;4.03;;;;;;;8.18;100.00;100193.56;5046325;28;20135;-78
2023/01/12 04:08:11;;;;;;;13.20;3.55;;;;;;;8.17;100.00;100199.84;5067178;28;20094;-78
2023/01/12 04:10:38;;;;;;;16.52;3.92;;;;;;;8.15;100.00;100194.63;5047968;28;20506;-78
2023/01/12 04:13:04;;;;;;;11.63;3.78;;;;;;;8.15;100.00;100154.75;5016048;28;20051;-78
2023/01/12 04:15:30;;;;;;;17.98;3.90;;;;;;;8.15;100.00;100157.41;5033389;28;20053;-78
2023/01/12 04:17:58;;;;;;;15.15;3.80;;;;;;;8.15;100.00;100146.75;5065666;28;20453;-78
2023/01/12 04:20:24;;;;;;;12.35;4.40;;;;;;;8.15;100.00;100125.50;5065270;28;20036;-77
2023/01/12 04:22:50;;;;;;;20.35;4.68;;;;;;;8.17;100.00;100153.81;5065712;28;20071;-78
2023/01/12 04:25:19;;;;;;;15.75;5.63;;;;;;;8.17;100.00;100135.19;5015791;28;20371;-79
2023/01/12 04:27:49;;;;;;;20.10;4.97;;;;;;;8.18;100.00;100105.00;5046932;28;20036;-79
2023/01/12 04:30:17;;;;;;;15.85;5.68;;;;;;;8.19;100.00;100120.00;5063904;28;20032;-78
2023/01/12 04:32:44;;;;;;;21.88;6.10;;;;;;;8.18;100.00;100108.50;5046417;28;20041;-79
2023/01/12 04:35:11;;;;;;;16.08;5.40;;;;;;;8.20;100.00;100111.06;5047780;28;20036;-78
2023/01/12 04:37:38;;;;;;;19.88;5.20;;;;;;;8.22;100.00;100125.13;5045170;28;20040;-79
2023/01/12 04:40:05;;;;;;;20.70;5.97;;;;;;;8.21;100.00;100118.13;5066029;28;20036;-79
2023/01/12 04:45:16;;;;;;;12.32;5.18;;;;;;;8.23;100.00;100060.38;5049301;28;20132;-79
2023/01/12 04:47:43;;;;;;;24.13;6.20;;;;;;;8.26;100.00;100057.56;5047279;28;20051;-79
2023/01/12 04:50:09;;;;;;;22.08;6.18;;;;;;;8.28;100.00;100082.25;5047982;28;20129;-79
2023/01/12 04:52:36;;;;;;;11.90;4.47;;;;;;;8.30;100.00;100075.03;5031575;28;20220;-80
2023/01/12 04:55:03;;;;;;;10.50;5.10;;;;;;;8.31;100.00;100053.69;5048750;28;20056;-82
2023/01/12 04:57:30;;;;;;;18.25;4.18;;;;;;;8.38;100.00;100093.22;5065432;28;20032;-77
2023/01/12 04:59:56;;;;;;;11.23;3.90;;;;;;;8.42;100.00;100103.59;5046770;28;20032;-78
2023/01/12 05:02:22;;;;;;;15.05;4.63;;;;;;;8.42;100.00;100079.66;5045829;28;20055;-78
2023/01/12 05:04:49;;;;;;;12.20;3.35;;;;;;;8.43;100.00;100076.06;5046592;28;20127;-78
2023/01/12 05:07:16;;;;;;;10.18;3.58;;;;;;;8.46;100.00;100090.97;5021775;28;20537;-78
2023/01/12 05:12:27;;;;;;;11.52;3.75;;;;;;;8.49;100.00;100070.38;5051202;28;20429;-79
2023/01/12 05:14:53;;;;;;;10.35;3.17;;;;;;;8.55;100.00;100042.56;5032753;28;20036;-79
2023/01/12 05:17:20;;;;;;;8.25;2.50;;;;;;;8.55;100.00;100085.13;5051928;28;20406;-78
2023/01/12 05:19:48;;;;;;;12.02;3.35;;;;;;;8.56;100.00;100051.41;5071089;28;20032;-78
2023/01/12 05:22:14;;;;;;;10.07;2.50;;;;;;;8.56;100.00;100060.25;5065872;28;20506;-79
2023/01/12 05:24:40;;;;;;;9.27;2.35;;;;;;;8.56;100.00;100086.84;5052591;28;20433;-79
2023/01/12 05:27:07;;;;;;;11.85;2.67;;;;;;;8.56;100.00;100062.06;5054163;28;20028;-79
2023/01/12 05:29:33;;;;;;;5.32;2.78;;;;;;;8.57;100.00;100103.66;5053656;28;20455;-79
2023/01/12 05:31:59;;;;;;;9.98;3.33;;;;;;;8.57;100.00;100099.19;5033902;28;20036;-79
2023/01/12 05:34:25;;;;;;;8.93;2.53;;;;;;;8.58;100.00;100095.59;5045645;28;20049;-79
2023/01/12 05:36:52;;;;;;;11.15;3.33;;;;;;;8.58;100.00;100102.72;5067949;28;20080;-79
2023/01/12 05:39:18;;;;;;;7.55;2.58;;;;;;;8.56;100.00;100096.63;5068361;28;20398;-79
2023/01/12 05:44:30;;;;;;;11.98;2.90;;;;;;;8.56;100.00;100107.28;5066302;28;20035;-79
2023/01/12 05:46:56;;;;;;;6.65;2.40;;;;;;;8.57;100.00;100091.19;5051767;28;20058;-79
2023/01/12 05:49:22;;;;;;;6.70;2.13;;;;;;;8.58;100.00;100105.38;5034510;28;20063;-79
2023/01/12 05:51:49;;;;;;;7.53;2.35;;;;;;;8.59;100.00;100083.13;5069177;28;20053;-79
2023/01/12 05:54:15;;;;;;;6.70;2.08;;;;;;;8.58;100.00;100094.75;5019594;28;20139;-79
2023/01/12 05:56:43;;;;;;;5.00;2.35;;;;;;;8.57;100.00;100099.19;5030776;28;20024;-79
2023/01/12 05:59:10;;;;;;;8.57;2.47;;;;;;;8.60;100.00;100104.34;5052779;28;20123;-79
2023/01/12 06:01:37;;;;;;;5.03;1.95;;;;;;;8.59;100.00;100093.78;5039311;28;20044;-78
2023/01/12 06:04:03;;;;;;;6.97;2.33;;;;;;;8.62;100.00;100096.28;5045756;28;20036;-79
2023/01/12 06:06:30;;;;;;;6.72;2.00;;;;;;;8.63;100.00;100101.50;5077482;28;20063;-79
2023/01/12 06:08:58;;;;;;;7.38;2.20;;;;;;;8.65;100.00;100101.41;5066623;28;20112;-78
2023/01/12 06:14:09;;;;;;;5.00;2.10;;;;;;;8.70;100.00;100094.00;5061780;28;20459;-78
2023/01/12 06:16:40;;;;;;;6.40;2.17;;;;;;;8.75;100.00;100107.03;5053617;28;20040;-79
2023/01/12 06:19:07;;;;;;;6.18;2.20;;;;;;;8.75;100.00;100097.25;5058347;28;20395;-79
2023/01/12 06:21:34;;;;;;;4.38;1.80;;;;;;;8.78;100.00;100097.06;5052444;28;20032;-79
2023/01/12 06:24:01;;;;;;;5.93;1.95;;;;;;;8.83;100.00;100084.31;5019063;28;20032;-79
2023/01/12 06:26:27;;;;;;;7.32;2.55;;;;;;;8.87;100.00;100100.97;5028903;28;20055;-79
2023/01/12 06:28:54;;;;;;;8.30;2.72;;;;;;;8.88;100.00;100100.88;5044405;28;20058;-78
2023/01/12 06:31:20;;;;;;;6.53;2.55;;;;;;;8.88;100.00;100079.59;5071296;28;20032;-77
2023/01/12 06:33:47;;;;;;;8.27;3.13;;;;;;;8.91;100.00;100123.81;5070765;28;20037;-79
2023/01/12 06:36:13;;;;;;;6.90;2.67;;;;;;;8.99;100.00;100121.53;5068532;28;20044;-79
2023/01/12 06:38:40;;;;;;;6.00;2.50;;;;;;;9.04;100.00;100119.47;5068652;28;20377;-79
2023/01/12 06:43:54;;;;;;;8.80;3.20;;;;;;;9.19;100.00;100123.00;5069516;28;20394;-79
2023/01/12 06:46:20;;;;;;;12.88;3.10;;;;;;;9.24;100.00;100136.88;5068451;28;20042;-80
2023/01/12 06:48:46;;;;;;;8.95;2.88;;;;;;;9.38;100.00;100143.19;5043335;28;20070;-80
2023/01/12 06:51:13;;;;;;;9.77;2.58;;;;;;;9.45;100.00;100120.50;5050518;28;20464;-79
2023/01/12 06:53:39;;;;;;;9.00;2.70;;;;;;;9.53;100.00;100136.88;5049317;28;20060;-80
2023/01/12 06:56:06;;;;;;;11.88;3.33;;;;;;;9.58;100.00;100128.59;5020527;28;20409;-80
2023/01/12 06:58:33;;;;;;;18.80;3.33;;;;;;;9.69;100.00;100144.75;5070946;28;20402;-79
2023/01/12 07:01:03;;;;;;;20.98;4.05;;;;;;;9.76;100.00;100137.25;5051062;28;20047;-80
2023/01/12 07:03:29;;;;;;;22.67;3.60;;;;;;;9.78;100.00;100130.84;5051764;28;20032;-80
2023/01/12 07:05:59;;;;;;;24.13;5.00;;;;;;;9.85;100.00;100147.31;5051132;28;20173;-81
2023/01/12 07:08:26;;;;;;;24.98;4.22;;;;;;;9.88;100.00;100140.00;5051824;28;20072;-80
2023/01/12 07:10:53;;;;;;;26.15;4.40;;;;;;;9.91;100.00;100144.25;5065912;28;20040;-81
2023/01/12 07:13:20;;;;;;;24.10;4.50;;;;;;;9.93;100.00;100142.34;5067668;28;20043;-80
2023/01/12 07:15:47;;;;;;;27.33;4.18;;;;;;;9.95;100.00;100140.44;5000069;28;20040;-80
2023/01/12 07:18:13;;;;;;;27.40;4.53;;;;;;;9.97;100.00;100151.88;5042966;28;20048;-80
2023/01/12 07:20:40;;;;;;;23.20;4.13;;;;;;;9.99;100.00;100149.97;5069409;28;20033;-81
2023/01/12 07:23:06;;;;;;;28.55;5.40;;;;;;;10.07;100.00;100150.34;5051491;28;20049;-81
2023/01/12 07:25:32;;;;;;;36.25;6.32;;;;;;;10.11;100.00;100142.16;5070579;28;20041;-81
2023/01/12 07:27:58;;;;;;;30.08;4.60;;;;;;;10.16;100.00;100150.69;5070209;28;20127;-81
2023/01/12 07:30:26;;;;;;;31.55;4.47;;;;;;;10.20;100.00;100152.22;5068793;28;20033;-80
2023/01/12 07:32:52;;;;;;;34.00;4.35;;;;;;;10.24;100.00;100154.56;5069489;28;20044;-81
2023/01/12 07:35:19;;;;;;;30.00;6.35;;;;;;;10.28;100.00;100160.56;5070206;28;20048;-81
2023/01/12 07:37:49;;;;;;;32.97;4.82;;;;;;;10.28;100.00;100145.41;5058353;28;20411;-81
2023/01/12 07:40:16;;;;;;;28.55;5.47;;;;;;;10.31;100.00;100155.06;5049125;28;20188;-81
2023/01/12 07:42:42;;;;;;;35.72;6.22;;;;;;;10.33;100.00;100169.16;5035430;28;20495;-88
2023/01/12 07:45:09;;;;;;;29.75;4.10;;;;;;;10.33;100.00;100171.84;5069545;28;20044;-81
2023/01/12 07:47:35;;;;;;;30.60;5.05;;;;;;;10.39;100.00;100173.25;5070516;28;20063;-81
2023/01/12 07:50:02;;;;;;;34.58;5.18;;;;;;;10.43;100.00;100164.06;5070078;28;20048;-81
2023/01/12 07:52:30;;;;;;;31.65;4.57;;;;;;;10.44;100.00;100150.63;5048429;28;20392;-78
2023/01/12 07:54:57;;;;;;;31.63;5.90;;;;;;;10.48;100.00;100162.81;5051209;28;20099;-81
2023/01/12 07:57:23;;;;;;;35.25;5.30;;;;;;;10.45;100.00;100167.50;5032335;28;20041;-81
2023/01/12 07:59:49;;;;;;;34.90;5.20;;;;;;;10.50;100.00;100159.22;5052814;28;20090;-80
2023/01/12 08:02:15;;;;;;;34.10;6.20;;;;;;;10.55;100.00;100175.75;5048837;28;20060;-80
2023/01/12 08:04:43;;;;;;;30.80;5.05;;;;;;;10.61;100.00;100172.69;5048904;28;20036;-80
2023/01/12 08:07:09;;;;;;;44.10;5.63;;;;;;;10.61;100.00;100176.22;5031698;28;20102;-80
2023/01/12 08:09:35;;;;;;;28.52;4.82;;;;;;;10.63;100.00;100173.44;5048199;28;20291;-80
2023/01/12 08:12:02;;;;;;;26.48;4.25;;;;;;;10.66;100.00;100182.09;5047888;28;20045;-80
2023/01/12 08:14:36;;;;;;;40.22;5.85;;;;;;;10.70;100.00;100190.78;5048482;28;20398;-79
2023/01/12 08:17:05;;;;;;;34.30;5.68;;;;;;;10.71;100.00;100179.13;5048266;28;20041;-80
2023/01/12 08:19:41;;;;;;;30.55;5.85;;;;;;;10.71;100.00;100172.94;5048046;28;20037;-80
2023/01/12 08:22:14;;;;;;;27.25;4.82;;;;;;;10.70;100.00;100185.44;5044187;28;20402;-81
2023/01/12 08:24:51;;;;;;;33.60;6.20;;;;;;;10.71;100.00;100189.78;5046879;28;20037;-81
2023/01/12 08:27:19;;;;;;;28.65;5.05;;;;;;;10.72;100.00;100191.53;5042950;28;20033;-80
2023/01/12 08:29:49;;;;;;;36.70;4.35;;;;;;;10.75;100.00;100188.63;5047659;28;20041;-80
2023/01/12 08:32:17;;;;;;;26.97;5.97;;;;;;;10.75;100.00;100193.97;5048936;28;20106;-80
2023/01/12 08:34:46;;;;;;;34.17;5.60;;;;;;;10.78;100.00;100204.44;5050044;28;20291;-81
2023/01/12 08:37:15;;;;;;;34.60;5.78;;;;;;;10.81;100.00;100201.59;5050060;28;20027;-80
2023/01/12 08:39:42;;;;;;;40.22;5.20;;;;;;;10.86;100.00;100214.63;5057895;28;20033;-80
2023/01/12 08:42:09;;;;;;;35.70;5.43;;;;;;;10.89;100.00;100208.25;5066166;28;20040;-80
2023/01/12 08:44:35;;;;;;;44.10;5.57;;;;;;;10.93;100.00;100217.75;5064476;28;20033;-80
2023/01/12 08:47:03;;;;;;;39.17;5.35;;;;;;;10.94;100.00;100223.00;5051627;28;20048;-79
2023/01/12 08:49:31;;;;;;;30.77;4.80;;;;;;;10.97;100.00;100219.25;5054714;28;20131;-79
2023/01/12 08:51:57;;;;;;;34.70;5.75;;;;;;;11.00;100.00;100225.25;5056786;28;20554;-80
2023/01/12 08:54:24;;;;;;;33.47;5.78;;;;;;;11.04;100.00;100218.72;5073927;28;20039;-80
2023/01/12 08:56:52;;;;;;;42.95;7.57;;;;;;;11.07;100.00;100217.69;5054364;28;20185;-80
2023/01/12 08:59:18;;;;;;;36.45;5.70;;;;;;;11.09;100.00;100209.53;5073509;28;20049;-80
2023/01/12 09:01:45;;;;;;;39.42;5.40;;;;;;;11.12;100.00;100214.69;5072577;28;20145;-80
2023/01/12 09:04:11;;;;;;;29.38;4.90;;;;;;;11.14;100.00;100213.63;5038798;28;20487;-80
2023/01/12 09:06:40;;;;;;;30.95;4.70;;;;;;;11.17;100.00;100224.09;5054895;28;20041;-79
2023/01/12 09:09:08;;;;;;;23.55;4.85;;;;;;;11.15;100.00;100233.19;5062180;28;20410;-80
2023/01/12 09:11:36;;;;;;;38.63;6.20;;;;;;;11.08;100.00;100230.06;5093206;28;20120;-79
2023/01/12 09:14:02;;;;;;;32.50;5.47;;;;;;;11.00;100.00;100232.41;5093315;28;20051;-81
2023/01/12 09:16:30;;;;;;;33.83;4.95;;;;;;;10.94;100.00;100232.78;5075227;28;20422;-79
2023/01/12 09:18:56;;;;;;;37.45;6.30;;;;;;;10.90;100.00;100233.97;5065936;28;20036;-80
2023/01/12 09:21:24;;;;;;;37.60;6.22;;;;;;;10.89;100.00;100241.13;5055080;28;20040;-80
2023/01/12 09:23:53;;;;;;;48.22;6.40;;;;;;;10.87;100.00;100251.06;5054471;28;20032;-80
2023/01/12 09:26:27;;;;;;;42.53;5.75;;;;;;;10.89;100.00;100248.28;5072025;28;20036;-80
2023/01/12 09:28:53;;;;;;;34.20;5.93;;;;;;;10.90;100.00;100253.50;5053619;28;20120;-79
2023/01/12 09:31:21;;;;;;;41.97;5.55;;;;;;;10.97;100.00;100243.28;5054710;28;20024;-80
2023/01/12 09:33:47;;;;;;;41.00;5.55;;;;;;;10.99;100.00;100257.38;5073043;28;20044;-80
2023/01/12 09:36:19;;;;;;;46.17;5.85;;;;;;;11.05;100.00;100256.97;5054584;28;20041;-79
2023/01/12 09:38:47;;;;;;;39.25;7.03;;;;;;;11.11;100.00;100261.03;5052986;28;20040;-79
2023/01/12 09:47:16;;;;;;;43.50;6.85;;;;;;;11.31;100.00;100275.75;5057647;28;20459;-79
2023/01/12 09:49:48;;;;;;;39.35;6.60;;;;;;;11.30;100.00;100279.41;5055807;28;20024;-81
2023/01/12 09:52:25;;;;;;;44.88;6.22;;;;;;;11.32;100.00;100272.13;5054435;28;20041;-79
2023/01/12 09:54:52;;;;;;;46.83;7.93;;;;;;;11.34;100.00;100284.41;5054367;28;20406;-79
2023/01/12 09:57:42;;;;;;;36.75;6.50;;;;;;;11.42;100.00;100291.91;5072378;28;20134;-79
2023/01/12 10:00:11;;;;;;;41.60;6.65;;;;;;;11.47;100.00;100294.28;5054427;28;20037;-80
2023/01/12 10:03:02;;;;;;;38.67;5.57;;;;;;;11.47;100.00;100300.47;5051052;28;20423;-78
2023/01/12 10:05:46;;;;;;;36.42;7.45;;;;;;;11.46;100.00;100301.41;5069800;28;20045;-78
2023/01/12 10:08:36;;;;;;;37.95;5.20;;;;;;;11.52;100.00;100292.13;5072163;28;20496;-78
2023/01/12 10:11:33;;;;;;;30.02;5.20;;;;;;;11.48;100.00;100291.50;5052798;28;20049;-79
2023/01/12 10:14:27;;;;;;;38.45;5.43;;;;;;;11.55;100.00;100298.13;5070086;28;20131;-79
2023/01/12 10:17:15;;;;;;;39.50;5.88;;;;;;;11.56;100.00;100297.19;5037049;28;20162;-78
2023/01/12 10:19:56;;;;;;;26.98;4.25;;;;;;;11.52;100.00;100298.34;5054106;28;20056;-79
2023/01/12 10:22:38;;;;;;;;;;;;;;;11.48;100.00;100309.34;5069782;28;20105;-79
2023/01/12 10:25:29;;;;;;;29.38;4.75;;;;;;;11.43;100.00;100304.31;5036210;28;19916;-78
2023/01/12 10:27:57;;;;;;;38.05;6.28;;;;;;;11.36;100.00;100305.69;5052050;28;20049;-78
2023/01/12 10:30:38;;;;;;;28.05;5.60;;;;;;;11.36;100.00;100309.22;5034661;28;20047;-79
2023/01/12 10:33:12;;;;;;;33.40;5.50;;;;;;;11.32;100.00;100317.56;5053364;28;20055;-80
2023/01/12 10:36:00;;;;;;;30.33;4.30;;;;;;;11.30;100.00;100295.44;5071926;28;20157;-79
2023/01/12 10:38:38;;;;;;;32.60;6.10;;;;;;;11.27;100.00;100317.00;5054676;28;20037;-79
2023/01/12 10:41:19;;;;;;;30.27;6.22;;;;;;;11.23;100.00;100319.00;5053705;28;20043;-80
2023/01/12 10:44:14;;;;;;;30.13;5.03;;;;;;;10.93;100.00;100295.19;5071214;28;20075;-80
2023/01/12 10:46:40;;;;;;;32.90;4.53;;;;;;;11.01;100.00;100330.25;5071135;28;20033;-79
2023/01/12 10:49:22;;;;;;;31.17;5.57;;;;;;;10.99;100.00;100338.38;5072291;28;20103;-79
2023/01/12 10:51:50;;;;;;;29.48;5.95;;;;;;;10.91;100.00;100346.03;5070502;28;20044;-80
2023/01/12 10:54:20;;;;;;;29.25;5.00;;;;;;;10.92;100.00;100346.88;5036767;28;20063;-80
2023/01/12 10:57:03;;;;;;;45.28;6.10;;;;;;;10.88;100.00;100346.22;5052952;28;20078;-83
2023/01/12 10:59:31;;;;;;;29.85;4.55;;;;;;;10.86;100.00;100354.34;5053393;28;20040;-80
2023/01/12 11:02:07;;;;;;;38.20;5.95;;;;;;;10.87;100.00;100333.84;5069376;28;20410;-77
2023/01/12 11:04:39;;;;;;;37.90;6.13;;;;;;;10.85;100.00;100341.09;5036752;28;20051;-79
2023/01/12 11:07:20;;;;;;;33.58;6.32;;;;;;;10.88;100.00;100342.69;5036630;28;20135;-80
2023/01/12 11:09:47;;;;;;;37.08;6.20;;;;;;;10.84;100.00;100340.22;5053569;28;20047;-80
2023/01/12 11:12:39;;;;;;;41.00;4.90;;;;;;;10.88;100.00;100340.88;5070762;28;20056;-79
2023/01/12 11:15:15;;;;;;;29.40;5.03;;;;;;;10.91;100.00;100331.81;5072595;28;20036;-79
2023/01/12 11:18:03;;;;;;;36.83;5.15;;;;;;;10.91;100.00;100335.34;5072286;28;20036;-80
2023/01/12 11:20:36;;;;;;;29.20;4.85;;;;;;;10.93;100.00;100337.91;5079241;28;20032;-79
2023/01/12 11:23:28;;;;;;;33.85;5.35;;;;;;;10.89;100.00;100341.75;5080275;28;20056;-80
2023/01/12 11:25:54;;;;;;;31.67;4.93;;;;;;;10.91;100.00;100327.34;5055048;28;20147;-80
2023/01/12 11:28:35;;;;;;;36.47;5.63;;;;;;;10.91;100.00;100327.34;5054887;28;20051;-80
2023/01/12 11:31:18;;;;;;;37.55;4.97;;;;;;;10.92;100.00;100325.50;5070085;28;20470;-80
2023/01/12 11:33:49;;;;;;;35.30;5.55;;;;;;;10.90;100.00;100324.75;5069176;28;20142;-81
2023/01/12 11:36:32;;;;;;;34.78;4.65;;;;;;;10.86;100.00;100321.44;5052282;28;20582;-80
2023/01/12 11:39:05;;;;;;;43.75;5.60;;;;;;;10.80;100.00;100322.69;5035679;28;20068;-80
2023/01/12 11:45:07;;;;;;;50.10;7.93;;;;;;;10.81;100.00;100323.53;5031972;28;20055;-84
2023/01/12 11:47:40;;;;;;;36.92;4.95;;;;;;;10.80;100.00;100312.00;5049952;28;20044;-80
2023/01/12 11:50:14;;;;;;;35.30;5.30;;;;;;;10.80;100.00;100317.34;5038680;28;20088;-80
2023/01/12 11:52:41;;;;;;;40.58;5.10;;;;;;;10.79;100.00;100315.66;5051979;28;20070;-80
2023/01/12 11:55:13;;;;;;;39.15;6.20;;;;;;;10.77;100.00;100317.56;5051824;28;20070;-80
2023/01/12 11:58:05;;;;;;;38.90;5.07;;;;;;;10.80;100.00;100312.00;5047151;28;20041;-81
2023/01/12 12:00:34;;;;;;;44.15;5.85;;;;;;;10.76;100.00;100309.66;5042235;28;20041;-81
2023/01/12 12:03:24;;;;;;;40.35;5.57;;;;;;;10.82;100.00;100301.22;5049574;28;20044;-80
2023/01/12 12:06:27;;;;;;;47.53;6.30;;;;;;;10.81;100.00;100303.06;5032615;28;20488;-80
2023/01/12 12:09:18;;;;;;;41.10;5.50;;;;;;;10.82;100.00;100307.41;5042895;28;20487;-81
2023/01/12 12:11:44;;;;;;;41.70;6.82;;;;;;;10.79;100.00;100307.63;5051468;28;20039;-80